Latest Weather Observations for Green Cape

IDN60801

Issued at 11:02 pm EST Monday 3 August 2015 (issued every 30 minutes, with the page automatically refreshed every 10 minutes)

About weather observations | Map of weather stations | Latest weather observations for NSW | Other Formats
Station Details ID: 069137 Name: GREEN CAPE AWS Lat: -37.26 Lon: 150.05 Height: 19.4 m
Data from the previous 72 hours. | See also: Recent months at Green Cape
Date/Time
EST
Temp
°C
App
Temp
°C
Dew
Point
Rel
Hum
%
Delta-T
°C
Wind Press
QNH
hPa
Press
MSL
hPa
Rain
since 9 am
mm
Dir
 
Spd
km/h
Gust
km/h
Spd
kts
Gust
kts
03/11:00pm 7.5 -1.6 1.8 67 2.3 W 39 52 21 28 1020.7 1020.7 0.0
03/10:30pm 7.6 -1.5 1.7 66 2.4 WSW 39 52 21 28 1020.6 1020.6 0.0
03/10:00pm 7.7 -2.1 2.4 69 2.2 W 43 57 23 31 1020.3 1020.3 0.0
03/09:30pm 7.7 -1.7 2.4 69 2.2 WSW 41 52 22 28 1019.9 1019.9 0.0
03/09:00pm 7.7 -1.7 2.6 70 2.1 WSW 41 52 22 28 1020.2 1020.2 0.0
03/08:30pm 8.0 -3.1 2.7 69 2.2 WSW 50 61 27 33 1019.3 1019.3 0.0
03/08:12pm 7.8 -2.5 2.5 69 2.2 WSW 46 65 25 35 1019.3 1019.3 0.0
03/08:00pm 7.8 -3.7 2.1 67 2.3 WSW 52 63 28 34 1019.2 1019.2 0.0
03/07:30pm 8.3 -2.4 2.5 67 2.4 WSW 48 59 26 32 1018.8 1018.8 0.0
03/07:00pm 8.0 -2.0 2.0 66 2.5 WSW 44 56 24 30 1018.4 1018.4 0.0
03/06:30pm 7.7 -1.7 2.4 69 2.2 WSW 41 56 22 30 1018.5 1018.5 0.0
03/06:22pm 8.1 -0.9 2.4 67 2.4 WSW 39 56 21 30 1018.4 1018.4 0.0
03/06:00pm 8.0 1.9 2.9 70 2.1 WSW 24 35 13 19 1018.0 1018.0 0.0
03/05:30pm 7.8 1.4 3.3 73 1.9 WSW 26 33 14 18 1017.7 1017.7 0.0
03/05:05pm 8.0 -2.1 3.5 73 1.9 SW 46 65 25 35 1017.0 1017.0 0.0
03/05:00pm 8.4 -2.2 3.3 70 2.2 SW 48 65 26 35 1016.9 1016.9 0.0
03/04:48pm 8.9 -0.3 3.5 69 2.3 SW 41 57 22 31 1016.5 1016.5 0.0
03/04:41pm 9.1 -0.6 3.1 66 2.6 SW 43 57 23 31 1015.9 1015.9 0.0
03/04:30pm 9.4 -0.9 2.9 64 2.8 WSW 46 61 25 33 1015.9 1015.9 0.0
03/04:00pm 9.5 -3.5 3.7 67 2.5 SW 61 72 33 39 1014.9 1014.9 0.0
03/03:31pm 9.4 -4.7 3.6 67 2.5 SW 67 85 36 46 1013.9 1013.9 0.0
03/03:30pm 9.3 -5.3 3.3 66 2.6 SW 69 85 37 46 1013.9 1013.9 0.0
03/03:00pm 9.6 -3.9 2.7 62 2.9 SW 63 83 34 45 1013.4 1013.4 0.0
03/02:30pm 9.0 -2.4 3.0 66 2.6 WSW 52 72 28 39 1013.7 1013.7 0.0
03/02:01pm 9.3 -2.9 3.5 67 2.5 WSW 57 76 31 41 1013.2 1013.2 0.0
03/02:00pm 9.3 -3.0 3.3 66 2.6 WSW 57 74 31 40 1013.3 1013.3 0.0
03/01:37pm 9.2 -2.1 3.4 67 2.5 WSW 52 70 28 38 1012.7 1012.7 0.0
03/01:30pm 9.1 -2.3 3.1 66 2.6 WSW 52 67 28 36 1013.0 1013.0 0.0
03/01:00pm 9.3 -2.8 3.3 66 2.6 WSW 56 74 30 40 1012.8 1012.8 0.0
03/12:33pm 8.5 -3.4 4.3 75 1.8 SW 56 76 30 41 1012.7 1012.7 0.0
03/12:30pm 8.3 -4.2 4.3 76 1.7 SW 59 76 32 41 1012.7 1012.7 0.0
03/12:00pm 9.1 -4.1 4.5 73 2.0 WSW 63 78 34 42 1012.3 1012.3 0.0
03/11:30am 8.5 -1.7 5.1 79 1.5 WSW 48 61 26 33 1012.6 1012.6 0.0
03/11:17am 8.7 -1.8 5.6 81 1.4 WSW 50 61 27 33 1012.5 1012.5 0.0
03/11:00am 9.2 -3.3 5.8 79 1.6 WSW 61 76 33 41 1012.4 1012.4 0.0
03/10:30am 10.4 -1.4 5.8 73 2.1 SW 57 69 31 37 1011.2 1011.2 0.0
03/10:22am 10.4 -0.1 5.6 72 2.2 SW 50 65 27 35 1011.1 1011.1 0.0
03/10:00am 11.1 3.2 6.0 71 2.4 SW 37 46 20 25 1010.8 1010.8 0.0
03/09:30am 12.4 5.0 4.9 60 3.4 SW 33 43 18 23 1010.0 1010.0 0.0
03/09:00am 13.9 8.8 2.8 47 4.9 WNW 19 32 10 17 1009.6 1009.6 0.0
03/08:30am 13.0 9.0 3.1 51 4.4 NNW 13 20 7 11 1009.5 1009.5 0.0
03/08:00am 12.8 7.4 2.4 49 4.5 NW 20 33 11 18 1009.1 1009.1 0.0
03/07:30am 9.4 7.1 4.6 72 2.1 SW 6 9 3 5 1008.7 1008.7 0.0
03/07:00am 8.6 5.5 3.6 71 2.2 N 9 13 5 7 1008.5 1008.5 0.0
03/06:30am 7.8 5.1 3.7 75 1.8 WNW 7 9 4 5 1008.3 1008.3 0.0
03/06:00am 8.4 5.0 4.0 74 1.9 WSW 11 15 6 8 1008.4 1008.4 0.0
03/05:30am 8.6 5.6 2.0 63 2.7 WNW 7 11 4 6 1008.2 1008.2 0.0
03/05:00am 9.6 5.8 4.0 68 2.5 W 13 15 7 8 1008.2 1008.2 0.0
03/04:30am 9.7 5.5 3.7 66 2.6 SW 15 20 8 11 1008.0 1008.0 0.0
03/04:00am 10.2 4.8 1.3 54 3.7 N 19 24 10 13 1007.8 1007.8 0.0
03/03:30am 10.1 5.0 0.7 52 3.8 N 17 24 9 13 1007.7 1007.7 0.0
03/03:00am 9.8 5.1 0.9 54 3.7 N 15 19 8 10 1008.1 1008.1 0.0
03/02:30am 9.6 4.4 0.2 52 3.8 NNW 17 20 9 11 1008.4 1008.4 0.0
03/02:00am 10.1 5.2 1.7 56 3.5 N 17 22 9 12 1008.4 1008.4 0.0
03/01:30am 9.1 4.8 1.3 58 3.2 N 13 15 7 8 1008.8 1008.8 0.0
03/01:00am 9.5 5.6 0.9 55 3.5 N 11 15 6 8 1009.1 1009.1 0.0
03/12:30am 10.4 6.0 2.7 59 3.3 N 15 20 8 11 1009.4 1009.4 0.0
03/12:00am 11.5 5.5 3.3 57 3.6 N 24 30 13 16 1009.5 1009.5 0.0
 
Date/Time
EST
Temp
°C
App
Temp
°C
Dew
Point
Rel
Hum
%
Delta-T
°C
Wind Press
QNH
hPa
Press
MSL
hPa
Rain
since 9 am
mm
Dir
 
Spd
km/h
Gust
km/h
Spd
kts
Gust
kts
02/11:30pm 11.0 6.5 2.3 55 3.7 N 15 20 8 11 1010.0 1010.0 0.0
02/11:00pm 11.1 6.0 0.8 49 4.3 NNW 17 22 9 12 1010.5 1010.5 0.0
02/10:30pm 10.8 5.8 1.1 51 4.0 NNW 17 22 9 12 1010.5 1010.5 0.0
02/10:00pm 10.7 5.8 1.8 54 3.8 NNW 17 19 9 10 1010.8 1010.8 0.0
02/09:30pm 10.4 6.6 3.9 64 2.9 NNW 13 17 7 9 1010.8 1010.8 0.0
02/09:00pm 10.3 6.6 8.1 86 1.1 NNW 17 20 9 11 1010.8 1010.8 0.0
02/08:30pm 10.4 7.2 8.3 87 1.0 NNW 15 22 8 12 1010.3 1010.3 0.0
02/08:00pm 10.3 7.8 8.1 86 1.1 NNW 11 15 6 8 1010.1 1010.1 0.0
02/07:30pm 10.2 9.0 8.1 87 1.0 NNW 4 6 2 3 1010.3 1010.3 0.0
02/07:00pm 10.4 8.6 7.8 84 1.3 WNW 7 9 4 5 1009.8 1009.8 0.0
02/06:30pm 10.6 8.9 7.5 81 1.5 WNW 6 7 3 4 1009.2 1009.2 0.0
02/06:00pm 10.9 9.7 8.0 82 1.4 W 4 9 2 5 1008.5 1008.5 0.0
02/05:30pm 11.1 8.2 8.1 82 1.5 S 13 17 7 9 1008.5 1008.5 0.0
02/05:00pm 11.4 5.0 8.6 83 1.4 S 32 35 17 19 1008.0 1008.0 0.0
02/04:30pm 11.6 4.6 8.6 82 1.5 S 35 39 19 21 1007.9 1007.9 0.0
02/04:00pm 11.7 5.4 8.9 83 1.4 S 32 37 17 20 1007.7 1007.7 0.0
02/03:30pm 12.5 7.6 8.6 77 1.9 S 24 32 13 17 1007.6 1007.6 0.0
02/03:00pm 12.4 8.8 8.3 76 2.0 S 17 19 9 10 1007.7 1007.7 0.0
02/02:30pm 12.3 8.7 8.4 77 1.9 SSW 17 20 9 11 1007.4 1007.4 0.0
02/02:00pm 12.3 9.1 8.6 78 1.8 SSW 15 20 8 11 1007.6 1007.6 0.0
02/01:30pm 11.4 7.2 7.3 76 2.0 SW 19 24 10 13 1007.4 1007.4 0.0
02/01:00pm 11.3 5.2 8.2 81 1.5 WSW 30 32 16 17 1008.1 1008.1 0.0
02/12:30pm 11.1 5.1 8.5 84 1.3 WSW 30 33 16 18 1008.8 1008.8 0.0
02/12:00pm 11.5 6.8 9.1 85 1.2 W 24 28 13 15 1009.3 1009.3 0.0
02/11:30am 12.1 8.0 10.0 87 1.1 SSW 22 26 12 14 1009.4 1009.4 0.0
02/11:00am 12.0 9.4 10.6 91 0.7 SW 15 17 8 9 1009.2 1009.2 0.0
02/10:30am 11.9 8.9 10.5 91 0.7 W 17 19 9 10 1010.0 1010.0 0.0
02/10:00am 11.5 8.3 10.1 91 0.7 WSW 17 20 9 11 1010.0 1010.0 0.0
02/09:30am 11.0 6.8 9.6 91 0.7 WSW 22 26 12 14 1010.0 1010.0 0.0
02/09:00am 10.6 6.6 9.2 91 0.7 W 20 22 11 12 1010.4 1010.4 0.6
02/08:30am 10.3 7.2 8.9 91 0.7 W 15 17 8 9 1010.7 1010.7 0.6
02/08:00am 10.2 7.8 8.6 90 0.8 W 11 13 6 7 1011.2 1011.2 0.6
02/07:30am 10.2 7.8 8.5 89 0.8 W 11 13 6 7 1011.3 1011.3 0.6
02/07:00am 10.9 9.4 9.0 88 0.9 N 7 13 4 7 1011.8 1011.8 0.4
02/06:30am 10.8 8.5 8.9 88 0.9 N 11 13 6 7 1012.4 1012.4 0.4
02/06:00am 10.6 8.6 8.5 87 1.0 NNE 9 15 5 8 1012.3 1012.3 0.4
02/05:30am 10.2 9.0 8.0 86 1.1 NNW 4 6 2 3 1012.5 1012.5 0.4
02/05:00am 10.4 7.9 8.2 86 1.1 NNE 11 15 6 8 1013.1 1013.1 0.4
02/04:30am 10.1 7.1 7.7 85 1.2 NNE 13 17 7 9 1013.3 1013.3 0.4
02/04:00am 9.2 7.7 6.8 85 1.1 N 4 7 2 4 1014.2 1014.2 0.4
02/03:30am 9.5 7.1 7.1 85 1.1 W 9 13 5 7 1015.1 1015.1 0.4
02/03:00am 9.6 6.9 7.2 85 1.1 W 11 13 6 7 1015.0 1015.0 0.4
02/02:30am 9.3 7.1 6.2 81 1.4 WNW 7 9 4 5 1015.2 1015.2 0.4
02/02:00am 9.4 7.1 5.9 79 1.6 WNW 7 11 4 6 1015.3 1015.3 0.2
02/01:30am 9.3 6.7 6.2 81 1.4 WNW 9 13 5 7 1015.6 1015.6 0.2
02/01:00am 9.6 6.0 6.7 82 1.4 W 15 19 8 10 1015.8 1015.8 0.2
02/12:30am 9.8 6.6 6.9 82 1.4 W 13 17 7 9 1015.8 1015.8 0.0
02/12:00am 10.0 6.0 6.5 79 1.6 W 17 20 9 11 1015.9 1015.9 0.0
 
Date/Time
EST
Temp
°C
App
Temp
°C
Dew
Point
Rel
Hum
%
Delta-T
°C
Wind Press
QNH
hPa
Press
MSL
hPa
Rain
since 9 am
mm
Dir
 
Spd
km/h
Gust
km/h
Spd
kts
Gust
kts
01/11:30pm 10.4 6.3 6.4 76 1.9 W 17 20 9 11 1016.1 1016.1 0.0
01/11:00pm 10.2 6.1 6.4 77 1.8 W 17 22 9 12 1016.1 1016.1 0.0
01/10:30pm 10.6 6.5 6.4 75 2.0 W 17 20 9 11 1016.2 1016.2 0.0
01/10:00pm 10.7 6.6 6.1 73 2.1 WSW 17 20 9 11 1016.1 1016.1 0.0
01/09:30pm 10.8 6.4 6.6 75 2.0 WSW 19 24 10 13 1016.2 1016.2 0.0
01/09:00pm 10.9 5.9 6.5 74 2.1 WSW 22 24 12 13 1016.5 1016.5 0.0
01/08:30pm 10.9 5.5 6.5 74 2.1 WSW 24 30 13 16 1016.3 1016.3 0.0
01/08:00pm 10.9 4.7 6.3 73 2.2 WSW 28 33 15 18 1016.2 1016.2 0.0
01/07:30pm 11.1 5.2 6.0 71 2.4 WSW 26 30 14 16 1015.8 1015.8 0.0
01/07:00pm 11.0 5.3 6.7 75 2.0 WSW 26 30 14 16 1015.5 1015.5 0.0
01/06:30pm 11.0 4.5 6.7 75 2.0 SW 30 33 16 18 1015.2 1015.2 0.0
01/06:00pm 11.0 5.3 6.6 74 2.1 SW 26 32 14 17 1015.0 1015.0 0.0
01/05:30pm 11.2 5.1 8.1 81 1.5 SW 30 35 16 19 1014.6 1014.6 0.0
01/05:00pm 11.2 5.0 9.5 89 0.9 SSW 32 37 17 20 1014.2 1014.2 0.0
01/04:30pm 11.5 4.1 9.9 90 0.8 SSW 39 46 21 25 1013.5 1013.5 0.0
01/04:00pm 12.1 6.5 10.3 89 0.9 S 30 35 16 19 1013.1 1013.1 0.0
01/03:30pm 12.6 6.7 10.3 86 1.2 SSW 32 39 17 21 1012.7 1012.7 0.0
01/03:00pm 13.0 5.4 10.5 85 1.3 SSW 41 44 22 24 1012.2 1012.2 0.0
01/02:30pm 13.4 4.6 10.9 85 1.3 S 48 56 26 30 1011.1 1011.1 0.0
01/02:00pm 14.3 6.5 11.1 81 1.7 S 43 50 23 27 1010.4 1010.4 0.0
01/01:41pm 15.2 11.7 10.2 72 2.6 SSW 19 48 10 26 1010.2 1010.2 0.0
01/01:30pm 14.9 13.6 10.1 73 2.5 WSW 7 11 4 6 1010.2 1010.2 0.0
01/01:00pm 14.7 12.3 11.5 81 1.7 N 15 17 8 9 1009.2 1009.2 0.0
01/12:30pm 15.2 11.9 11.6 79 1.9 N 20 22 11 12 1009.1 1009.1 0.0
01/12:00pm 15.2 10.5 10.8 75 2.3 N 26 30 14 16 1009.6 1009.6 0.0
01/11:30am 16.3 11.6 10.8 70 2.9 N 26 32 14 17 1010.0 1010.0 0.0
01/11:00am 16.1 12.3 11.1 72 2.7 N 22 26 12 14 1010.4 1010.4 0.0
01/10:30am 15.3 11.3 10.3 72 2.6 N 22 26 12 14 1010.0 1010.0 0.0
01/10:00am 14.8 10.1 9.4 70 2.8 N 24 30 13 16 1009.9 1009.9 0.0
01/09:30am 14.0 8.7 8.6 70 2.7 N 26 32 14 17 1010.1 1010.1 0.0
01/09:00am 13.0 8.9 8.5 74 2.2 N 20 24 11 13 1010.9 1010.9 0.0
01/08:30am 12.8 7.5 8.5 75 2.1 N 26 30 14 16 1010.9 1010.9 0.0
01/08:00am 12.0 7.1 7.1 72 2.4 N 22 24 12 13 1010.8 1010.8 0.0
01/07:30am 11.7 8.6 5.6 66 2.8 N 11 13 6 7 1011.4 1011.4 0.0
01/07:00am 11.6 8.0 5.0 64 3.0 N 13 15 7 8 1011.8 1011.8 0.0
01/06:30am 11.4 7.7 4.6 63 3.1 NNW 13 19 7 10 1011.9 1011.9 0.0
01/06:00am 11.4 8.4 5.9 69 2.6 NNW 11 17 6 9 1012.1 1012.1 0.0
01/05:30am 11.9 7.5 7.2 73 2.3 N 20 22 11 12 1011.8 1011.8 0.0
01/05:00am 11.9 7.7 7.6 75 2.1 N 19 24 10 13 1011.9 1011.9 0.0
01/04:30am 11.9 7.6 7.8 76 2.0 N 20 26 11 14 1011.7 1011.7 0.0
01/04:00am 11.6 7.3 6.9 73 2.2 N 19 24 10 13 1012.1 1012.1 0.0
01/03:30am 11.3 7.2 6.0 70 2.5 NNW 17 22 9 12 1012.6 1012.6 0.0
01/03:00am 11.8 3.1 8.6 81 1.6 N 44 54 24 29 1011.8 1011.8 0.0
01/02:30am 11.5 3.4 8.7 83 1.4 N 41 48 22 26 1012.4 1012.4 0.0
01/02:00am 11.7 4.9 9.1 84 1.3 N 35 44 19 24 1013.2 1013.2 0.0
01/01:30am 11.8 5.0 9.2 84 1.3 N 35 43 19 23 1013.5 1013.5 0.0
01/01:00am 12.3 4.9 10.0 86 1.2 N 39 43 21 23 1014.5 1014.5 0.0
01/12:30am 12.7 4.7 10.4 86 1.2 N 43 50 23 27 1014.6 1014.6 0.0
01/12:00am 12.9 4.9 10.4 85 1.3 N 43 48 23 26 1015.2 1015.2 0.0
 
Date/Time
EST
Temp
°C
App
Temp
°C
Dew
Point
Rel
Hum
%
Delta-T
°C
Wind Press
QNH
hPa
Press
MSL
hPa
Rain
since 9 am
mm
Dir
 
Spd
km/h
Gust
km/h
Spd
kts
Gust
kts
31/11:30pm 13.0 4.8 10.4 84 1.3 N 44 52 24 28 1015.6 1015.6 0.0

Other Formats:

Comma delimited format used in spreadsheet applications
http://www.bom.gov.au/fwo/IDN60801/IDN60801.94934.axf

JavaScript Object Notation format (JSON) in row-major order
http://www.bom.gov.au/fwo/IDN60801/IDN60801.94934.json